Time;durP1;ratioP1;P1;durP2;ratioP2;P2;SDS_P1;SDS_P2;PMS_P1;PMS_P2;Temp;Humidity;BMP_temperature;BMP_pressure;BME280_temperature;BME280_humidity;BME280_pressure;Samples;Min_cycle;Max_cycle;Signal;HPM_P1;HPM_P2
2023/05/01 00:02:38;;;;;;;4.90;2.20;;;;;;;6.71;69.97;101382.44;6083765;28;20099;-70
2023/05/01 00:05:34;;;;;;;5.72;2.47;;;;;;;6.78;69.84;101383.69;6072653;28;20461;-71
2023/05/01 00:08:29;;;;;;;11.60;2.90;;;;;;;6.92;69.96;101375.69;6052459;28;20026;-71
2023/05/01 00:11:24;;;;;;;5.10;2.20;;;;;;;6.71;70.18;101366.63;6052562;28;20026;-70
2023/05/01 00:14:20;;;;;;;6.40;2.70;;;;;;;6.57;70.47;101359.66;6051829;28;20264;-70
2023/05/01 00:17:15;;;;;;;3.97;2.17;;;;;;;6.63;71.02;101374.22;6051937;28;20069;-70
2023/05/01 00:20:11;;;;;;;10.60;2.70;;;;;;;6.57;70.04;101364.06;6052443;28;20304;-71
2023/05/01 00:23:07;;;;;;;5.95;1.98;;;;;;;6.75;70.02;101368.06;6051464;28;20519;-71
2023/05/01 00:26:02;;;;;;;6.53;2.50;;;;;;;6.58;69.68;101357.84;6051548;28;20033;-71
2023/05/01 00:28:58;;;;;;;10.32;2.60;;;;;;;6.63;69.50;101358.41;6054227;28;20063;-70
2023/05/01 00:31:54;;;;;;;9.23;2.53;;;;;;;6.47;69.75;101348.03;6049255;28;20080;-71
2023/05/01 00:34:49;;;;;;;8.10;2.25;;;;;;;6.58;70.30;101353.41;6051419;28;20029;-70
2023/05/01 00:37:44;;;;;;;8.88;2.50;;;;;;;6.49;69.88;101345.31;6051825;28;20473;-71
2023/05/01 00:40:44;;;;;;;5.70;2.17;;;;;;;6.46;70.25;101350.78;6051647;28;20037;-70
2023/05/01 00:43:39;;;;;;;6.47;1.90;;;;;;;6.44;70.38;101336.88;6051284;28;20084;-71
2023/05/01 00:46:34;;;;;;;5.33;2.20;;;;;;;6.28;70.35;101325.66;6051002;28;20025;-71
2023/05/01 00:49:30;;;;;;;5.03;2.07;;;;;;;6.36;70.36;101339.19;6051901;28;20087;-69
2023/05/01 00:52:25;;;;;;;8.68;2.28;;;;;;;6.26;70.46;101327.56;6051477;28;20045;-70
2023/05/01 00:55:20;;;;;;;6.65;2.50;;;;;;;6.27;70.07;101318.75;6050314;28;20037;-72
2023/05/01 00:58:17;;;;;;;9.45;2.65;;;;;;;6.24;70.34;101324.22;6051227;28;20052;-70
2023/05/01 01:01:13;;;;;;;8.10;2.72;;;;;;;6.25;70.40;101318.00;6050870;28;20065;-73
2023/05/01 01:04:08;;;;;;;6.53;2.70;;;;;;;6.41;69.36;101316.84;6050738;28;20105;-69
2023/05/01 01:07:10;;;;;;;5.80;2.22;;;;;;;6.28;69.20;101301.97;6050887;28;20113;-71
2023/05/01 01:10:22;;;;;;;9.55;2.17;;;;;;;6.35;68.63;101295.34;6049997;28;20115;-70
2023/05/01 01:13:25;;;;;;;5.82;2.65;;;;;;;6.45;69.08;101314.84;6048941;28;20069;-71
2023/05/01 01:16:28;;;;;;;8.18;2.30;;;;;;;6.44;69.21;101307.91;6045317;28;20029;-71
2023/05/01 01:19:43;;;;;;;6.63;2.35;;;;;;;6.44;68.58;101310.53;6050720;28;20029;-71
2023/05/01 01:22:46;;;;;;;5.50;2.50;;;;;;;6.29;69.27;101303.66;6050669;28;20045;-71
2023/05/01 01:26:21;;;;;;;4.93;2.30;;;;;;;6.23;69.47;101302.28;6049848;28;20029;-71
2023/05/01 01:29:31;;;;;;;10.68;2.53;;;;;;;6.16;69.85;101281.75;6045638;28;20397;-71
2023/05/01 01:32:55;;;;;;;5.07;2.22;;;;;;;6.27;68.95;101281.88;6049573;28;20469;-73
2023/05/01 01:35:56;;;;;;;8.95;2.45;;;;;;;6.24;70.18;101271.53;6048742;28;20101;-72
2023/05/01 01:39:08;;;;;;;;;;;;;;;6.38;69.52;101289.88;6051117;28;20101;-71
2023/05/01 01:42:08;;;;;;;7.38;3.00;;;;;;;6.28;69.82;101294.06;6065756;28;19920;-71
2023/05/01 01:45:09;;;;;;;6.22;2.55;;;;;;;6.20;70.62;101291.13;6049426;28;20432;-72
2023/05/01 01:48:07;;;;;;;6.05;2.60;;;;;;;6.11;70.74;101291.75;6062572;28;20025;-71
2023/05/01 01:51:08;;;;;;;7.20;2.42;;;;;;;5.97;71.30;101280.38;6072767;28;20052;-71
2023/05/01 01:54:03;;;;;;;8.88;3.17;;;;;;;5.86;71.65;101274.13;6072225;28;20040;-72
2023/05/01 01:57:01;;;;;;;6.63;2.40;;;;;;;5.85;72.58;101269.81;6052679;28;20084;-71
2023/05/01 01:59:56;;;;;;;6.53;2.40;;;;;;;5.82;72.80;101260.28;6048559;28;20260;-70
2023/05/01 02:02:52;;;;;;;8.65;3.30;;;;;;;5.99;73.31;101246.88;6049408;28;20053;-71
2023/05/01 02:05:50;;;;;;;9.23;2.85;;;;;;;5.88;73.18;101253.81;6053762;28;20021;-71
2023/05/01 02:08:46;;;;;;;7.68;2.65;;;;;;;5.90;72.93;101255.38;6048088;28;20052;-71
2023/05/01 02:11:41;;;;;;;8.82;3.17;;;;;;;5.72;73.21;101243.44;6048583;28;20041;-72
2023/05/01 02:14:37;;;;;;;9.10;3.13;;;;;;;5.96;74.21;101252.34;6048087;28;20420;-70
2023/05/01 02:17:34;;;;;;;8.60;3.42;;;;;;;6.12;73.52;101252.16;6047928;28;20121;-71
2023/05/01 02:20:29;;;;;;;9.48;3.08;;;;;;;5.97;72.38;101246.16;6049674;28;20369;-70
2023/05/01 02:23:26;;;;;;;7.80;3.20;;;;;;;5.74;72.93;101224.91;6048960;28;20034;-71
2023/05/01 02:26:24;;;;;;;5.85;2.75;;;;;;;5.65;73.52;101231.66;6048347;28;20025;-71
2023/05/01 02:29:19;;;;;;;7.57;3.33;;;;;;;5.75;75.63;101234.50;6055341;28;20036;-71
2023/05/01 02:32:14;;;;;;;6.77;3.07;;;;;;;5.75;74.07;101245.88;6076174;28;20039;-69
2023/05/01 02:35:10;;;;;;;10.30;3.20;;;;;;;6.33;75.85;101244.59;6065830;28;20101;-71
2023/05/01 02:38:05;;;;;;;10.23;3.00;;;;;;;5.76;74.62;101226.47;6049633;28;20033;-71
2023/05/01 02:41:01;;;;;;;8.10;2.70;;;;;;;6.21;78.26;101222.56;6049276;28;20264;-71
2023/05/01 02:44:00;;;;;;;7.57;3.08;;;;;;;6.31;77.88;101222.75;6047440;28;20017;-71
2023/05/01 02:46:56;;;;;;;8.27;3.13;;;;;;;6.33;77.94;101223.50;6064394;28;20032;-70
2023/05/01 02:49:52;;;;;;;11.55;3.28;;;;;;;6.29;77.00;101229.94;6048186;28;20089;-69
2023/05/01 02:52:47;;;;;;;11.60;2.97;;;;;;;6.21;77.06;101222.56;6064043;28;20121;-69
2023/05/01 02:55:43;;;;;;;5.67;3.00;;;;;;;5.79;74.66;101218.38;6046876;28;20026;-70
2023/05/01 02:58:38;;;;;;;10.30;2.95;;;;;;;5.54;75.61;101210.47;6049320;28;20097;-71
2023/05/01 03:01:33;;;;;;;8.53;2.83;;;;;;;5.46;76.86;101209.28;6049121;28;20385;-71
2023/05/01 03:04:29;;;;;;;7.73;3.10;;;;;;;5.38;75.77;101186.13;6048654;28;20513;-69
2023/05/01 03:07:24;;;;;;;14.80;4.18;;;;;;;5.40;77.06;101208.75;6048660;28;20030;-71
2023/05/01 03:10:19;;;;;;;8.47;3.13;;;;;;;5.42;77.76;101190.22;6053056;28;20085;-69
2023/05/01 03:13:15;;;;;;;6.65;2.67;;;;;;;5.66;78.87;101191.22;6053456;28;20425;-69
2023/05/01 03:16:10;;;;;;;9.75;3.90;;;;;;;5.90;79.90;101189.59;6053345;28;20034;-70
2023/05/01 03:19:06;;;;;;;8.43;3.30;;;;;;;5.83;79.21;101169.88;6053659;28;20075;-70
2023/05/01 03:22:02;;;;;;;8.10;3.13;;;;;;;5.93;81.03;101168.34;6053684;28;20517;-69
2023/05/01 03:24:58;;;;;;;8.05;3.60;;;;;;;5.84;79.76;101179.44;6051299;28;20523;-71
2023/05/01 03:27:53;;;;;;;8.57;2.60;;;;;;;5.63;78.43;101173.00;6053048;28;20022;-70
2023/05/01 03:30:50;;;;;;;8.20;3.70;;;;;;;5.49;78.41;101156.50;6053487;28;20069;-71
2023/05/01 03:33:45;;;;;;;7.97;3.15;;;;;;;5.58;81.06;101154.06;6052215;28;20052;-71
2023/05/01 03:36:41;;;;;;;12.23;3.70;;;;;;;5.44;79.39;101167.28;6053079;28;20037;-70
2023/05/01 03:39:36;;;;;;;9.13;3.70;;;;;;;5.43;79.57;101148.03;6052996;28;20030;-71
2023/05/01 03:42:31;;;;;;;9.20;3.30;;;;;;;5.19;78.96;101148.84;6052619;28;20040;-71
2023/05/01 03:45:27;;;;;;;11.37;3.60;;;;;;;5.17;78.48;101161.22;6051192;28;20029;-71
2023/05/01 03:48:23;;;;;;;11.30;3.53;;;;;;;5.13;79.28;101160.59;6052638;28;20783;-71
2023/05/01 03:51:18;;;;;;;13.32;3.60;;;;;;;5.02;79.38;101155.22;6052866;28;20072;-69
2023/05/01 03:54:14;;;;;;;6.90;3.00;;;;;;;4.91;78.70;101154.22;6052028;28;20038;-69
2023/05/01 03:57:09;;;;;;;8.77;4.03;;;;;;;5.08;80.94;101135.56;6052538;28;20358;-71
2023/05/01 04:00:06;;;;;;;9.20;3.50;;;;;;;5.43;80.90;101135.84;6052862;28;20273;-70
2023/05/01 04:03:01;;;;;;;8.05;3.47;;;;;;;5.72;80.38;101148.72;6052148;28;20026;-70
2023/05/01 04:05:56;;;;;;;7.90;3.50;;;;;;;5.65;78.61;101131.69;6052004;28;20033;-71
2023/05/01 04:08:52;;;;;;;12.32;3.47;;;;;;;5.58;79.34;101130.41;6051371;28;20363;-70
2023/05/01 04:11:47;;;;;;;9.80;3.40;;;;;;;5.62;78.34;101142.41;6052109;28;20048;-71
2023/05/01 04:14:43;;;;;;;10.63;3.27;;;;;;;5.19;78.20;101135.72;6051472;28;20034;-71
2023/05/01 04:17:38;;;;;;;11.25;3.92;;;;;;;4.82;79.72;101135.47;6051643;28;20037;-71
2023/05/01 04:20:34;;;;;;;14.00;4.00;;;;;;;4.80;79.66;101131.25;6066606;28;20029;-71
2023/05/01 04:23:29;;;;;;;16.40;5.05;;;;;;;4.81;80.17;101123.25;6051358;28;20280;-70
2023/05/01 04:26:25;;;;;;;12.03;3.90;;;;;;;5.05;79.38;101130.50;6052293;28;20034;-70
2023/05/01 04:29:20;;;;;;;9.93;3.38;;;;;;;5.03;79.69;101108.75;6051593;28;20381;-69
2023/05/01 04:32:16;;;;;;;12.07;3.10;;;;;;;5.17;79.65;101121.81;6051745;28;21418;-71
2023/05/01 04:35:11;;;;;;;6.90;2.92;;;;;;;5.08;78.36;101107.47;6051019;28;20038;-70
2023/05/01 04:38:07;;;;;;;9.23;3.40;;;;;;;5.19;79.02;101112.88;6051762;28;20038;-71
2023/05/01 04:41:04;;;;;;;10.13;3.72;;;;;;;5.20;79.08;101114.56;6051717;28;20041;-70
2023/05/01 04:44:00;;;;;;;6.75;3.00;;;;;;;5.26;78.76;101094.91;6050660;28;20048;-72
2023/05/01 04:46:55;;;;;;;6.73;3.30;;;;;;;5.59;78.12;101095.25;6051466;28;20473;-71
2023/05/01 04:49:51;;;;;;;13.60;3.83;;;;;;;5.93;75.57;101115.69;6051175;28;20030;-70
2023/05/01 04:52:46;;;;;;;7.85;3.17;;;;;;;5.78;75.09;101097.47;6051578;28;20018;-71
2023/05/01 04:55:42;;;;;;;8.03;2.90;;;;;;;6.16;75.19;101105.34;6059885;28;20038;-70
2023/05/01 04:58:37;;;;;;;7.28;2.75;;;;;;;6.09;74.58;101102.28;6056405;28;20036;-71
2023/05/01 05:01:32;;;;;;;7.83;2.60;;;;;;;6.01;74.86;101098.53;6051509;28;20094;-70
2023/05/01 05:04:28;;;;;;;7.87;3.20;;;;;;;6.01;74.54;101096.72;6066539;28;20323;-69
2023/05/01 05:07:23;;;;;;;11.43;3.10;;;;;;;6.05;75.54;101110.53;6067444;28;20033;-70
2023/05/01 05:10:18;;;;;;;9.57;3.13;;;;;;;5.82;76.71;101094.50;6073562;28;20065;-70
2023/05/01 05:13:14;;;;;;;7.47;3.30;;;;;;;5.75;77.04;101092.41;6074585;28;20029;-71
2023/05/01 05:16:09;;;;;;;7.43;2.93;;;;;;;6.02;76.20;101101.06;6074593;28;20523;-69
2023/05/01 05:19:04;;;;;;;8.43;2.67;;;;;;;6.13;75.66;101100.28;6053412;28;20053;-69
2023/05/01 05:22:03;;;;;;;7.07;2.77;;;;;;;6.42;75.07;101093.78;6051068;28;20040;-70
2023/05/01 05:25:02;;;;;;;10.27;3.45;;;;;;;6.89;72.95;101101.72;6050563;28;20496;-70
2023/05/01 05:27:59;;;;;;;8.27;3.03;;;;;;;7.36;71.28;101102.63;6056659;28;20034;-71
2023/05/01 05:30:55;;;;;;;8.93;2.60;;;;;;;7.69;69.08;101084.22;6051711;28;20473;-70
2023/05/01 05:33:51;;;;;;;7.20;3.13;;;;;;;7.55;69.36;101080.00;6073620;28;20112;-70
2023/05/01 05:36:46;;;;;;;8.50;3.50;;;;;;;7.29;69.26;101098.75;6074557;28;20037;-71
2023/05/01 05:39:41;;;;;;;10.43;3.57;;;;;;;7.28;70.44;101082.09;6063151;28;20029;-69
2023/05/01 05:42:36;;;;;;;9.83;3.10;;;;;;;7.67;69.31;101073.75;6050418;28;20041;-70
2023/05/01 05:45:33;;;;;;;6.90;3.03;;;;;;;7.95;66.60;101085.66;6071404;28;20021;-71
2023/05/01 05:48:28;;;;;;;12.95;3.65;;;;;;;7.42;68.28;101073.16;6052697;28;20033;-69
2023/05/01 05:51:23;;;;;;;13.97;3.77;;;;;;;8.23;64.68;101071.97;6050211;28;20026;-68
2023/05/01 05:54:19;;;;;;;9.97;3.70;;;;;;;8.44;63.18;101069.44;6048924;28;20033;-71
2023/05/01 05:57:14;;;;;;;7.70;3.40;;;;;;;8.09;65.20;101072.22;6050171;28;20426;-70
2023/05/01 06:00:10;;;;;;;8.80;3.78;;;;;;;7.79;65.06;101075.47;6050182;28;20267;-71
2023/05/01 06:03:06;;;;;;;8.68;3.17;;;;;;;8.66;62.96;101079.09;6049751;28;20465;-71
2023/05/01 06:06:01;;;;;;;9.82;3.30;;;;;;;9.27;59.90;101073.06;6054542;28;20065;-70
2023/05/01 06:08:57;;;;;;;11.25;3.38;;;;;;;9.69;59.77;101075.69;6073577;28;20029;-68
2023/05/01 06:11:52;;;;;;;10.52;3.88;;;;;;;9.53;57.31;101066.41;6067054;28;20616;-71
2023/05/01 06:14:47;;;;;;;10.30;3.37;;;;;;;9.05;58.52;101054.66;6063789;28;20072;-70
2023/05/01 06:17:43;;;;;;;10.03;3.63;;;;;;;9.39;58.24;101079.13;6059356;28;20042;-72
2023/05/01 06:20:38;;;;;;;8.67;3.03;;;;;;;9.30;57.85;101064.03;6049944;28;20385;-72
2023/05/01 06:23:34;;;;;;;7.68;3.47;;;;;;;8.97;58.91;101051.81;6049525;28;20026;-70
2023/05/01 06:26:29;;;;;;;9.13;2.70;;;;;;;9.30;59.82;101075.44;6049029;28;20388;-70
2023/05/01 06:29:24;;;;;;;8.53;3.00;;;;;;;9.85;58.20;101066.28;6049012;28;20025;-71
2023/05/01 06:32:20;;;;;;;8.57;3.40;;;;;;;10.04;56.92;101050.47;6056302;28;20292;-70
2023/05/01 06:35:15;;;;;;;7.45;3.20;;;;;;;10.43;55.84;101050.63;6055180;28;20470;-68
2023/05/01 06:38:10;;;;;;;8.23;2.95;;;;;;;10.73;55.01;101048.69;6047933;28;20048;-69
2023/05/01 06:41:06;;;;;;;8.73;3.50;;;;;;;10.83;54.69;101031.94;6056624;28;20107;-70
2023/05/01 06:44:01;;;;;;;10.77;3.30;;;;;;;10.58;54.54;101039.47;6074843;28;20026;-68
2023/05/01 06:46:57;;;;;;;8.97;3.17;;;;;;;10.43;55.52;101046.16;6055722;28;20385;-70
2023/05/01 06:49:52;;;;;;;10.57;2.97;;;;;;;10.37;55.19;101044.03;6054393;28;20449;-70
2023/05/01 06:52:48;;;;;;;6.57;3.17;;;;;;;10.68;54.43;101040.31;6054169;28;20044;-70
2023/05/01 06:55:43;;;;;;;8.20;2.97;;;;;;;10.79;52.44;101028.72;6053306;28;20026;-72
2023/05/01 06:58:38;;;;;;;11.17;3.33;;;;;;;10.59;52.80;101030.56;6071961;28;20021;-70
2023/05/01 07:01:34;;;;;;;7.23;3.07;;;;;;;10.50;53.74;101044.63;6077359;28;20029;-70
2023/05/01 07:04:30;;;;;;;10.13;3.83;;;;;;;10.56;52.56;101040.59;6052414;28;20025;-69
2023/05/01 07:07:25;;;;;;;8.88;3.28;;;;;;;10.62;53.58;101021.47;6055088;28;20080;-71
2023/05/01 07:10:21;;;;;;;7.57;2.97;;;;;;;11.11;51.91;101023.97;6053752;28;20026;-71
2023/05/01 07:13:17;;;;;;;10.20;3.53;;;;;;;11.65;50.83;101036.56;6052531;28;20061;-71
2023/05/01 07:16:12;;;;;;;9.48;3.30;;;;;;;11.36;51.34;101030.47;6053054;28;20040;-69
2023/05/01 07:19:07;;;;;;;7.70;3.30;;;;;;;11.23;51.83;101030.78;6052757;28;20112;-71
2023/05/01 07:22:03;;;;;;;7.77;3.50;;;;;;;11.15;52.35;101016.53;6053698;28;20040;-71
2023/05/01 07:25:00;;;;;;;10.50;3.95;;;;;;;11.41;51.77;101007.00;6052457;28;20030;-70
2023/05/01 07:27:56;;;;;;;9.18;3.55;;;;;;;11.54;51.75;101017.31;6053261;28;20045;-70
2023/05/01 07:30:51;;;;;;;11.87;3.73;;;;;;;11.24;52.09;101011.25;6055710;28;20053;-71
2023/05/01 07:33:46;;;;;;;7.73;3.40;;;;;;;11.60;51.77;101001.63;6079526;28;20273;-69
2023/05/01 07:36:42;;;;;;;9.83;3.40;;;;;;;11.67;51.64;101013.34;6063599;28;20059;-70
2023/05/01 07:39:37;;;;;;;9.57;3.57;;;;;;;11.36;52.22;101001.25;6052726;28;20624;-69
2023/05/01 07:42:32;;;;;;;7.60;3.33;;;;;;;12.08;50.92;101008.56;6052880;28;20034;-71
2023/05/01 07:45:28;;;;;;;7.27;3.13;;;;;;;12.62;50.37;101008.47;6052409;28;20034;-72
2023/05/01 07:48:24;;;;;;;9.60;3.40;;;;;;;12.70;49.92;101003.22;6052662;28;20072;-70
2023/05/01 07:51:19;;;;;;;8.18;3.67;;;;;;;12.82;49.63;100996.69;6052795;28;20470;-70
2023/05/01 07:54:15;;;;;;;8.45;3.60;;;;;;;12.39;49.94;100988.66;6051410;28;20049;-70
2023/05/01 07:57:11;;;;;;;6.95;3.53;;;;;;;12.82;50.61;101002.03;6051309;28;20030;-70
2023/05/01 08:00:06;;;;;;;9.10;3.73;;;;;;;12.59;49.61;100984.84;6052846;28;20504;-68
2023/05/01 08:03:02;;;;;;;6.97;2.83;;;;;;;12.92;48.50;100997.44;6052249;28;20026;-72
2023/05/01 08:05:57;;;;;;;10.27;3.33;;;;;;;13.17;47.35;100984.34;6051179;28;20061;-70
2023/05/01 08:08:52;;;;;;;11.18;3.45;;;;;;;13.26;48.17;100978.09;6055377;28;20817;-70
2023/05/01 08:11:48;;;;;;;8.97;3.67;;;;;;;13.38;47.86;100974.16;6057527;28;20045;-70
2023/05/01 08:14:43;;;;;;;9.30;3.50;;;;;;;13.59;47.89;100969.25;6051450;28;20033;-69
2023/05/01 08:17:38;;;;;;;8.53;3.33;;;;;;;14.13;46.64;100960.81;6052360;28;20376;-69
2023/05/01 08:20:36;;;;;;;8.73;3.60;;;;;;;13.94;46.77;100971.75;6052042;28;20030;-70
2023/05/01 08:23:32;;;;;;;7.25;3.47;;;;;;;13.87;46.44;100968.06;6051207;28;20049;-69
2023/05/01 08:26:27;;;;;;;7.97;3.53;;;;;;;14.00;46.63;100968.44;6051879;28;20017;-69
2023/05/01 08:29:22;;;;;;;10.17;4.00;;;;;;;14.13;46.10;100963.47;6057339;28;20036;-71
2023/05/01 08:32:18;;;;;;;7.40;3.30;;;;;;;14.21;45.57;100966.16;6053909;28;20021;-69
2023/05/01 08:35:13;;;;;;;7.90;3.20;;;;;;;14.07;46.43;100940.16;6051275;28;20029;-70
2023/05/01 08:38:10;;;;;;;8.00;3.03;;;;;;;14.46;45.94;100958.25;6052016;28;20025;-70
2023/05/01 08:41:05;;;;;;;8.95;3.38;;;;;;;14.24;45.79;100955.16;6051733;28;20265;-69
2023/05/01 08:44:02;;;;;;;7.47;2.90;;;;;;;14.48;44.84;100941.09;6053097;28;20022;-69
2023/05/01 08:47:04;;;;;;;8.13;3.17;;;;;;;15.22;43.09;100962.22;6065609;28;20026;-70
2023/05/01 08:50:00;;;;;;;5.88;3.25;;;;;;;15.05;44.08;100957.09;6051600;28;20113;-71
2023/05/01 08:52:57;;;;;;;7.78;3.10;;;;;;;14.94;44.08;100958.28;6050690;28;20384;-70
2023/05/01 08:55:55;;;;;;;8.77;2.97;;;;;;;15.09;44.37;100940.53;6049672;28;20492;-70
2023/05/01 08:58:52;;;;;;;5.50;2.88;;;;;;;15.38;43.49;100943.47;6050509;28;20106;-70
2023/05/01 09:01:47;;;;;;;10.48;3.30;;;;;;;15.63;44.01;100938.06;6050869;28;20030;-70
2023/05/01 09:04:43;;;;;;;7.97;3.17;;;;;;;15.26;44.14;100939.50;6066658;28;20059;-70
2023/05/01 09:07:39;;;;;;;7.55;3.35;;;;;;;15.62;43.32;100921.22;6063709;28;20117;-70
2023/05/01 09:10:38;;;;;;;12.18;3.92;;;;;;;16.04;42.63;100926.19;6050991;28;20088;-70
2023/05/01 09:13:33;;;;;;;8.18;3.20;;;;;;;16.03;41.98;100919.19;6049634;28;20034;-71
2023/05/01 09:16:29;;;;;;;7.03;3.00;;;;;;;16.00;41.05;100922.22;6051052;28;20118;-72
2023/05/01 09:19:25;;;;;;;5.97;2.40;;;;;;;16.52;40.75;100915.13;6051639;28;20276;-70
2023/05/01 09:22:20;;;;;;;6.72;2.70;;;;;;;16.58;40.85;100914.47;6073106;28;20029;-71
2023/05/01 09:25:17;;;;;;;8.17;3.70;;;;;;;16.02;42.71;100920.19;6061140;28;20029;-69
2023/05/01 09:28:12;;;;;;;8.00;2.90;;;;;;;16.12;41.48;100901.22;6051035;28;20744;-68
2023/05/01 09:31:27;;;;;;;8.73;2.73;;;;;;;16.63;40.64;100889.84;6055498;28;20064;-71
2023/05/01 09:34:22;;;;;;;7.32;2.70;;;;;;;17.03;39.96;100885.94;6050361;28;20022;-71
2023/05/01 09:37:31;;;;;;;7.83;2.73;;;;;;;16.51;41.39;100891.22;6050582;28;20045;-71
2023/05/01 09:40:27;;;;;;;6.32;2.80;;;;;;;16.30;41.83;100905.28;6050582;28;20547;-69
2023/05/01 09:43:26;;;;;;;6.53;2.90;;;;;;;16.08;42.50;100884.69;6049945;28;20029;-71
2023/05/01 09:46:23;;;;;;;6.68;3.00;;;;;;;16.57;42.03;100885.19;6050696;28;20029;-72
2023/05/01 09:49:19;;;;;;;9.02;2.92;;;;;;;16.76;41.39;100886.53;6050334;28;20034;-72
2023/05/01 09:52:15;;;;;;;7.00;3.17;;;;;;;16.77;41.06;100877.50;6052889;28;20534;-72
2023/05/01 09:55:14;;;;;;;8.07;3.42;;;;;;;17.16;41.33;100875.38;6069177;28;20033;-73
2023/05/01 09:58:46;;;;;;;9.55;3.28;;;;;;;17.20;41.17;100890.09;6055382;28;20037;-72
2023/05/01 10:01:44;;;;;;;8.05;3.03;;;;;;;17.56;40.23;100877.63;6091273;28;20021;-70
2023/05/01 10:04:40;;;;;;;9.20;3.03;;;;;;;17.20;41.31;100874.81;6069418;28;20026;-72
2023/05/01 10:07:36;;;;;;;8.15;2.83;;;;;;;17.53;40.73;100872.63;6049976;28;20429;-69
2023/05/01 10:10:31;;;;;;;7.18;3.00;;;;;;;17.05;41.32;100865.13;6049902;28;20021;-72
2023/05/01 10:13:26;;;;;;;7.90;2.90;;;;;;;17.08;41.42;100875.47;6056763;28;20104;-71
2023/05/01 10:16:29;;;;;;;8.30;3.30;;;;;;;17.57;40.96;100879.28;6073858;28;20030;-72
2023/05/01 10:19:24;;;;;;;6.00;3.50;;;;;;;17.68;40.54;100868.09;6072861;28;20136;-71
2023/05/01 10:22:20;;;;;;;8.50;3.40;;;;;;;17.70;40.24;100868.72;6061813;28;20038;-69
2023/05/01 10:25:16;;;;;;;7.45;3.10;;;;;;;17.61;40.83;100859.09;6048949;28;20026;-70
2023/05/01 10:28:11;;;;;;;8.98;3.20;;;;;;;17.47;40.95;100856.44;6049414;28;20034;-71
2023/05/01 10:31:07;;;;;;;8.00;3.20;;;;;;;17.90;40.83;100873.47;6050487;28;20042;-71
2023/05/01 10:34:03;;;;;;;5.68;2.78;;;;;;;18.10;39.91;100859.25;6065491;28;20275;-70
2023/05/01 10:37:04;;;;;;;7.43;3.05;;;;;;;18.23;39.98;100858.56;6071013;28;20116;-70
2023/05/01 10:39:59;;;;;;;7.28;2.70;;;;;;;18.48;38.27;100835.66;6058268;28;20076;-71
2023/05/01 10:43:14;;;;;;;7.03;2.43;;;;;;;19.10;38.52;100841.06;6066168;28;20465;-71
2023/05/01 10:46:17;;;;;;;5.18;2.65;;;;;;;19.34;37.17;100853.19;6048220;28;20037;-70
2023/05/01 10:49:13;;;;;;;4.85;2.50;;;;;;;19.35;36.88;100822.59;6049671;28;20026;-71
2023/05/01 10:52:08;;;;;;;5.87;2.27;;;;;;;19.50;37.05;100828.66;6049461;28;20033;-70
2023/05/01 10:55:34;;;;;;;7.30;2.63;;;;;;;19.80;36.26;100818.41;6048095;28;20040;-71
2023/05/01 10:58:35;;;;;;;7.05;2.58;;;;;;;20.29;35.79;100810.88;6071547;28;20026;-72
2023/05/01 11:01:34;;;;;;;6.35;3.05;;;;;;;20.10;35.79;100814.34;6073489;28;20030;-70
2023/05/01 11:04:52;;;;;;;6.43;2.60;;;;;;;19.46;36.69;100825.53;6072633;28;20028;-71
2023/05/01 11:08:26;;;;;;;6.00;3.08;;;;;;;19.21;37.79;100819.00;6066344;28;20034;-71
2023/05/01 11:11:24;;;;;;;6.88;2.65;;;;;;;18.62;38.70;100810.56;6057074;28;20021;-70
2023/05/01 11:14:19;;;;;;;4.85;2.30;;;;;;;18.90;38.06;100803.31;6064347;28;20037;-71
2023/05/01 11:17:40;;;;;;;6.17;2.47;;;;;;;18.86;38.13;100812.78;6049195;28;20030;-71
2023/05/01 11:20:35;;;;;;;8.27;2.28;;;;;;;19.15;38.83;100805.53;6049357;28;20458;-70
2023/05/01 11:23:31;;;;;;;5.13;2.20;;;;;;;19.23;38.14;100791.91;6048399;28;20072;-70
2023/05/01 11:26:30;;;;;;;5.70;2.28;;;;;;;19.57;37.69;100790.00;6048945;28;20044;-70
2023/05/01 11:29:30;;;;;;;5.18;2.20;;;;;;;19.57;37.46;100779.22;6049992;28;20421;-71
2023/05/01 11:32:29;;;;;;;5.65;2.80;;;;;;;19.85;36.32;100791.72;6053316;28;20037;-70
2023/05/01 11:35:26;;;;;;;6.00;2.35;;;;;;;20.67;36.40;100781.41;6051753;28;20116;-72
2023/05/01 11:38:21;;;;;;;5.60;2.22;;;;;;;21.05;34.98;100763.47;6052865;28;20805;-70
2023/05/01 11:41:22;;;;;;;4.55;2.40;;;;;;;21.56;34.51;100776.97;6053511;28;20076;-70
2023/05/01 11:44:18;;;;;;;5.50;2.55;;;;;;;21.66;34.37;100777.31;6052095;28;20030;-71
2023/05/01 11:47:13;;;;;;;5.57;2.13;;;;;;;22.24;33.53;100774.44;6060462;28;20472;-71
2023/05/01 11:50:09;;;;;;;5.55;2.92;;;;;;;20.61;35.15;100777.69;6076902;28;20341;-71
2023/05/01 11:53:14;;;;;;;6.00;2.75;;;;;;;20.18;36.25;100771.88;6076684;28;20021;-70
2023/05/01 11:56:22;;;;;;;7.88;3.15;;;;;;;20.29;36.17;100766.94;6076566;28;20571;-70
2023/05/01 11:59:17;;;;;;;6.43;3.03;;;;;;;20.05;36.70;100739.56;6076449;28;20543;-71
2023/05/01 12:02:19;;;;;;;5.22;2.53;;;;;;;20.24;36.82;100758.63;6076833;28;20049;-70
2023/05/01 12:05:16;;;;;;;4.25;2.35;;;;;;;20.49;36.82;100736.22;6075807;28;20510;-70
2023/05/01 12:08:22;;;;;;;5.45;2.25;;;;;;;20.94;36.36;100739.03;6066345;28;20473;-70
2023/05/01 12:11:19;;;;;;;6.32;2.30;;;;;;;21.00;34.61;100732.78;6052595;28;20037;-71
2023/05/01 12:14:15;;;;;;;4.07;2.20;;;;;;;20.86;36.72;100732.00;6052220;28;20036;-71
2023/05/01 12:17:10;;;;;;;6.53;2.30;;;;;;;21.14;36.67;100747.91;6052743;28;20033;-70
2023/05/01 12:20:07;;;;;;;5.75;1.77;;;;;;;21.33;35.93;100738.91;6051989;28;20057;-72
2023/05/01 12:23:06;;;;;;;6.25;2.47;;;;;;;21.19;36.21;100737.31;6053026;28;20034;-71
2023/05/01 12:26:22;;;;;;;5.75;1.92;;;;;;;21.20;36.16;100744.34;6063892;28;20034;-69
2023/05/01 12:29:17;;;;;;;4.75;1.80;;;;;;;21.26;34.87;100743.47;6069603;28;20045;-73
2023/05/01 12:32:13;;;;;;;4.73;1.90;;;;;;;21.07;35.39;100745.22;6070495;28;20055;-69
2023/05/01 12:35:14;;;;;;;3.10;1.80;;;;;;;21.04;35.79;100745.63;6072848;28;20025;-69
2023/05/01 12:38:17;;;;;;;2.75;1.80;;;;;;;21.43;35.20;100730.31;6073453;28;20115;-71
2023/05/01 12:41:12;;;;;;;4.63;2.10;;;;;;;21.48;34.03;100730.50;6049074;28;20026;-73
2023/05/01 12:44:21;;;;;;;4.80;1.83;;;;;;;21.48;34.32;100723.25;6048866;28;20492;-71
2023/05/01 12:47:17;;;;;;;3.03;1.52;;;;;;;21.49;34.43;100719.50;6053245;28;20022;-71
2023/05/01 12:50:12;;;;;;;4.23;2.37;;;;;;;21.26;34.91;100711.94;6069162;28;20032;-71
2023/05/01 12:53:08;;;;;;;4.67;2.00;;;;;;;21.35;34.45;100732.25;6074088;28;20268;-71
2023/05/01 12:56:04;;;;;;;4.80;1.55;;;;;;;20.96;35.49;100729.69;6074796;28;20510;-71
2023/05/01 12:58:59;;;;;;;3.13;1.33;;;;;;;21.09;34.57;100710.78;6075380;28;20037;-70
2023/05/01 13:02:05;;;;;;;2.43;1.20;;;;;;;20.89;35.22;100704.63;6075286;28;20037;-70
2023/05/01 13:05:08;;;;;;;3.05;1.23;;;;;;;20.81;34.79;100702.16;6074868;28;20117;-70
2023/05/01 13:08:03;;;;;;;2.95;1.75;;;;;;;21.08;33.77;100702.91;6067576;28;20120;-71
2023/05/01 13:11:01;;;;;;;3.38;1.58;;;;;;;21.28;33.96;100685.56;6051193;28;20064;-70
2023/05/01 13:14:06;;;;;;;2.38;1.60;;;;;;;21.03;34.50;100687.34;6050540;28;20025;-71
2023/05/01 13:17:02;;;;;;;3.17;1.27;;;;;;;21.81;35.06;100701.41;6045739;28;20026;-69
2023/05/01 13:19:59;;;;;;;2.17;1.33;;;;;;;21.51;33.77;100700.38;6072748;28;20377;-72
2023/05/01 13:22:54;;;;;;;3.22;1.33;;;;;;;21.38;34.58;100692.38;6074645;28;20472;-71
2023/05/01 13:25:55;;;;;;;2.70;1.30;;;;;;;21.63;33.79;100677.88;6072982;28;20034;-70
2023/05/01 13:28:50;;;;;;;3.95;1.42;;;;;;;21.51;34.63;100681.50;6057272;28;20116;-72
2023/05/01 13:31:45;;;;;;;2.70;1.27;;;;;;;21.59;33.30;100689.31;6074895;28;20380;-69
2023/05/01 13:34:41;;;;;;;2.03;1.33;;;;;;;21.35;33.91;100680.16;6073988;28;20036;-71
2023/05/01 13:37:38;;;;;;;3.10;1.40;;;;;;;21.44;33.08;100686.94;6074486;28;20056;-70
2023/05/01 13:40:34;;;;;;;2.92;1.25;;;;;;;21.54;33.46;100675.66;6056347;28;20068;-72
2023/05/01 13:43:29;;;;;;;2.00;1.10;;;;;;;21.46;33.66;100673.22;6049900;28;20461;-71
2023/05/01 13:46:27;;;;;;;3.20;1.53;;;;;;;21.61;33.95;100681.81;6049450;28;20032;-72
2023/05/01 13:49:24;;;;;;;2.65;1.10;;;;;;;21.46;34.33;100678.63;6052517;28;20313;-72
2023/05/01 13:52:20;;;;;;;2.70;1.20;;;;;;;20.99;35.13;100661.00;6074427;28;20403;-71